createdAt,value
2023-01-21T00:01:04.344Z,100.00
2023-01-21T00:03:33.688Z,100.00
2023-01-21T00:06:00.288Z,100.00
2023-01-21T00:08:27.491Z,100.00
2023-01-21T00:10:54.311Z,100.00
2023-01-21T00:13:21.327Z,100.00
2023-01-21T00:15:50.431Z,100.00
2023-01-21T00:18:18.974Z,100.00
2023-01-21T00:20:46.209Z,100.00
2023-01-21T00:23:13.076Z,100.00
2023-01-21T00:25:39.631Z,100.00
2023-01-21T00:28:06.016Z,100.00
2023-01-21T00:30:32.674Z,100.00
2023-01-21T00:32:59.180Z,100.00
2023-01-21T00:35:25.664Z,100.00
2023-01-21T00:37:52.516Z,100.00
2023-01-21T00:40:21.458Z,100.00
2023-01-21T00:42:47.893Z,100.00
2023-01-21T00:45:14.439Z,100.00
2023-01-21T00:47:40.835Z,100.00
2023-01-21T00:50:08.783Z,100.00
2023-01-21T00:52:38.569Z,100.00
2023-01-21T00:55:06.040Z,100.00
2023-01-21T00:57:35.208Z,100.00
2023-01-21T01:00:05.173Z,100.00
2023-01-21T01:02:34.736Z,100.00
2023-01-21T01:05:01.238Z,100.00
2023-01-21T01:07:27.680Z,100.00
2023-01-21T01:09:54.171Z,100.00
2023-01-21T01:12:20.651Z,100.00
2023-01-21T01:14:47.524Z,100.00
2023-01-21T01:17:13.917Z,100.00
2023-01-21T01:19:40.275Z,100.00
2023-01-21T01:22:06.686Z,100.00
2023-01-21T01:24:33.168Z,100.00
2023-01-21T01:26:59.662Z,100.00
2023-01-21T01:29:28.629Z,100.00
2023-01-21T01:31:57.817Z,100.00
2023-01-21T01:34:26.515Z,100.00
2023-01-21T01:36:53.045Z,100.00
2023-01-21T01:39:19.523Z,100.00
2023-01-21T01:41:46.109Z,100.00
2023-01-21T01:44:53.074Z,100.00
2023-01-21T01:47:25.787Z,100.00
2023-01-21T01:49:52.429Z,100.00
2023-01-21T01:52:20.089Z,100.00
2023-01-21T01:54:53.048Z,100.00
2023-01-21T01:57:22.906Z,100.00
2023-01-21T01:59:50.448Z,100.00
2023-01-21T02:02:19.917Z,100.00
2023-01-21T02:04:53.248Z,100.00
2023-01-21T02:07:24.532Z,100.00
2023-01-21T02:09:55.516Z,100.00
2023-01-21T02:12:22.403Z,100.00
2023-01-21T02:14:51.475Z,100.00
2023-01-21T02:17:31.702Z,100.00
2023-01-21T02:20:35.598Z,100.00
2023-01-21T02:23:20.446Z,100.00
2023-01-21T02:26:05.117Z,100.00
2023-01-21T02:29:11.413Z,100.00
2023-01-21T02:32:11.944Z,100.00
2023-01-21T02:34:56.911Z,100.00
2023-01-21T02:37:43.223Z,100.00
2023-01-21T02:40:30.368Z,100.00
2023-01-21T02:43:07.786Z,100.00
2023-01-21T02:45:48.888Z,100.00
2023-01-21T02:48:25.181Z,100.00
2023-01-21T02:50:55.131Z,100.00
2023-01-21T02:53:32.867Z,100.00
2023-01-21T02:56:07.582Z,100.00
2023-01-21T02:58:37.553Z,100.00
2023-01-21T03:01:17.738Z,100.00
2023-01-21T03:04:02.700Z,100.00
2023-01-21T03:06:52.927Z,100.00
2023-01-21T03:09:25.568Z,100.00
2023-01-21T03:12:03.961Z,100.00
2023-01-21T03:15:13.510Z,100.00
2023-01-21T03:17:42.117Z,100.00
2023-01-21T03:20:14.758Z,100.00
2023-01-21T03:22:42.666Z,100.00
2023-01-21T03:25:11.723Z,100.00
2023-01-21T03:27:41.641Z,100.00
2023-01-21T03:30:22.816Z,100.00
2023-01-21T03:32:52.523Z,100.00
2023-01-21T03:35:31.641Z,100.00
2023-01-21T03:38:08.971Z,100.00
2023-01-21T03:40:42.246Z,100.00
2023-01-21T03:43:12.271Z,100.00
2023-01-21T03:45:49.286Z,100.00
2023-01-21T03:48:33.878Z,100.00
2023-01-21T03:51:05.539Z,100.00
2023-01-21T03:53:32.150Z,100.00
2023-01-21T03:55:59.932Z,100.00
2023-01-21T03:58:27.674Z,100.00
2023-01-21T04:00:54.163Z,100.00
2023-01-21T04:03:20.812Z,100.00
2023-01-21T04:05:52.650Z,100.00
2023-01-21T04:08:19.088Z,100.00
2023-01-21T04:10:47.862Z,100.00
2023-01-21T04:13:17.669Z,100.00
2023-01-21T04:15:49.440Z,100.00
2023-01-21T04:18:18.389Z,100.00
2023-01-21T04:20:46.624Z,100.00
2023-01-21T04:23:15.844Z,100.00
2023-01-21T04:25:49.363Z,100.00
2023-01-21T04:28:23.861Z,100.00
2023-01-21T04:30:50.548Z,100.00
2023-01-21T04:33:17.146Z,100.00
2023-01-21T04:35:52.619Z,100.00
2023-01-21T04:38:22.224Z,100.00
2023-01-21T04:40:48.759Z,100.00
2023-01-21T04:43:18.154Z,100.00
2023-01-21T04:45:44.702Z,100.00
2023-01-21T04:48:11.177Z,100.00
2023-01-21T04:50:47.664Z,100.00
2023-01-21T04:53:14.248Z,100.00
2023-01-21T04:55:42.925Z,100.00
2023-01-21T04:58:09.689Z,100.00
2023-01-21T05:00:36.439Z,100.00
2023-01-21T05:03:02.938Z,100.00
2023-01-21T05:05:35.516Z,100.00
2023-01-21T05:08:01.960Z,100.00
2023-01-21T05:10:28.344Z,100.00
2023-01-21T05:12:55.109Z,100.00
2023-01-21T05:15:21.919Z,100.00
2023-01-21T05:17:48.294Z,100.00
2023-01-21T05:20:15.019Z,100.00
2023-01-21T05:22:45.829Z,100.00
2023-01-21T05:25:12.259Z,100.00
2023-01-21T05:27:38.668Z,100.00
2023-01-21T05:30:07.870Z,100.00
2023-01-21T05:32:37.634Z,100.00
2023-01-21T05:35:05.128Z,100.00
2023-01-21T05:37:31.609Z,100.00
2023-01-21T05:39:57.967Z,100.00
2023-01-21T05:42:24.424Z,100.00
2023-01-21T05:44:55.536Z,100.00
2023-01-21T05:47:24.070Z,100.00
2023-01-21T05:49:50.475Z,100.00
2023-01-21T05:52:16.975Z,100.00
2023-01-21T05:55:01.012Z,100.00
2023-01-21T05:57:28.884Z,100.00
2023-01-21T06:01:10.775Z,100.00
2023-01-21T06:03:38.510Z,100.00
2023-01-21T06:06:05.402Z,100.00
2023-01-21T06:08:31.831Z,100.00
2023-01-21T06:10:58.278Z,100.00
2023-01-21T06:13:24.815Z,100.00
2023-01-21T06:15:54.916Z,100.00
2023-01-21T06:18:22.571Z,100.00
2023-01-21T06:20:48.998Z,100.00
2023-01-21T06:23:16.015Z,100.00
2023-01-21T06:25:43.610Z,100.00
2023-01-21T06:28:14.267Z,100.00
2023-01-21T06:30:43.239Z,100.00
2023-01-21T06:33:12.283Z,100.00
2023-01-21T06:35:39.165Z,100.00
2023-01-21T06:38:05.799Z,100.00
2023-01-21T06:40:32.373Z,100.00
2023-01-21T06:42:58.775Z,100.00
2023-01-21T06:45:25.230Z,100.00
2023-01-21T06:47:53.869Z,100.00
2023-01-21T06:50:20.340Z,100.00
2023-01-21T06:52:49.454Z,100.00
2023-01-21T06:55:18.394Z,100.00
2023-01-21T06:57:44.978Z,100.00
2023-01-21T07:00:12.999Z,100.00
2023-01-21T07:02:39.563Z,100.00
2023-01-21T07:05:06.493Z,100.00
2023-01-21T07:07:32.991Z,100.00
2023-01-21T07:09:59.403Z,100.00
2023-01-21T07:12:25.835Z,100.00
2023-01-21T07:14:52.210Z,100.00
2023-01-21T07:17:19.210Z,100.00
2023-01-21T07:19:45.651Z,100.00
2023-01-21T07:22:12.133Z,100.00
2023-01-21T07:24:38.800Z,100.00
2023-01-21T07:27:07.718Z,100.00
2023-01-21T07:29:34.121Z,100.00
2023-01-21T07:32:00.996Z,100.00
2023-01-21T07:34:27.483Z,100.00
2023-01-21T07:36:53.925Z,100.00
2023-01-21T07:39:22.860Z,100.00
2023-01-21T07:41:49.475Z,100.00
2023-01-21T07:44:16.146Z,100.00
2023-01-21T07:46:42.680Z,100.00
2023-01-21T07:49:16.997Z,100.00
2023-01-21T07:51:45.014Z,100.00
2023-01-21T07:54:14.822Z,100.00
2023-01-21T07:56:41.633Z,100.00
2023-01-21T07:59:09.706Z,100.00
2023-01-21T08:01:36.108Z,100.00
2023-01-21T08:04:02.563Z,100.00
2023-01-21T08:06:29.128Z,100.00
2023-01-21T08:08:55.639Z,100.00
2023-01-21T08:11:22.087Z,100.00
2023-01-21T08:13:50.480Z,100.00
2023-01-21T08:16:20.153Z,100.00
2023-01-21T08:18:46.871Z,100.00
2023-01-21T08:21:16.147Z,100.00
2023-01-21T08:23:42.645Z,100.00
2023-01-21T08:26:09.095Z,100.00
2023-01-21T08:28:38.445Z,100.00
2023-01-21T08:31:07.178Z,100.00
2023-01-21T08:33:36.150Z,100.00
2023-01-21T08:36:06.128Z,100.00
2023-01-21T08:38:35.723Z,100.00
2023-01-21T08:41:02.128Z,100.00
2023-01-21T08:43:28.813Z,100.00
2023-01-21T08:45:57.639Z,100.00
2023-01-21T08:48:24.172Z,100.00
2023-01-21T08:50:53.289Z,100.00
2023-01-21T08:53:22.279Z,100.00
2023-01-21T08:55:48.825Z,100.00
2023-01-21T08:58:20.218Z,100.00
2023-01-21T09:00:51.613Z,100.00
2023-01-21T09:03:19.589Z,100.00
2023-01-21T09:05:47.539Z,100.00
2023-01-21T09:08:14.134Z,100.00
2023-01-21T09:10:59.277Z,100.00
2023-01-21T09:13:28.326Z,100.00
2023-01-21T09:15:55.598Z,100.00
2023-01-21T09:18:24.475Z,100.00
2023-01-21T09:20:51.126Z,100.00
2023-01-21T09:23:27.001Z,100.00
2023-01-21T09:26:03.198Z,100.00
2023-01-21T09:28:30.959Z,100.00
2023-01-21T09:31:02.604Z,100.00
2023-01-21T09:33:30.897Z,100.00
2023-01-21T09:36:00.810Z,100.00
2023-01-21T09:38:28.683Z,100.00
2023-01-21T09:40:58.983Z,100.00
2023-01-21T09:43:38.983Z,100.00
2023-01-21T09:46:13.412Z,100.00
2023-01-21T09:48:47.724Z,100.00
2023-01-21T09:51:37.367Z,100.00
2023-01-21T09:54:10.500Z,100.00
2023-01-21T09:56:50.542Z,100.00
2023-01-21T09:59:23.777Z,100.00
2023-01-21T10:01:52.021Z,100.00
2023-01-21T10:04:32.828Z,100.00
2023-01-21T10:07:06.456Z,100.00
2023-01-21T10:09:41.332Z,99.84
2023-01-21T10:12:23.318Z,99.64
2023-01-21T10:15:18.051Z,100.00
2023-01-21T10:18:02.170Z,100.00
2023-01-21T10:20:36.765Z,99.68
2023-01-21T10:23:24.643Z,99.29
2023-01-21T10:25:54.340Z,99.42
2023-01-21T10:28:28.282Z,100.00
2023-01-21T10:31:00.602Z,99.62
2023-01-21T10:33:31.240Z,99.90
2023-01-21T10:36:11.034Z,99.64
2023-01-21T10:39:14.864Z,99.11
2023-01-21T10:41:55.980Z,99.65
2023-01-21T10:44:34.028Z,99.50
2023-01-21T10:47:07.106Z,98.13
2023-01-21T10:49:48.621Z,98.40
2023-01-21T10:52:21.039Z,97.94
2023-01-21T10:55:07.570Z,97.28
2023-01-21T10:57:49.806Z,97.88
2023-01-21T11:00:24.696Z,97.57
2023-01-21T11:02:57.193Z,98.31
2023-01-21T11:05:25.165Z,97.80
2023-01-21T11:07:52.490Z,97.72
2023-01-21T11:10:28.858Z,98.67
2023-01-21T11:12:55.946Z,98.04
2023-01-21T11:15:23.818Z,97.82
2023-01-21T11:18:02.237Z,97.13
2023-01-21T11:20:38.904Z,97.63
2023-01-21T11:23:24.487Z,97.00
2023-01-21T11:25:50.913Z,96.54
2023-01-21T11:28:24.856Z,95.79
2023-01-21T11:31:04.945Z,97.36
2023-01-21T11:33:31.748Z,97.11
2023-01-21T11:36:12.884Z,97.25
2023-01-21T11:38:39.955Z,96.93
2023-01-21T11:41:12.164Z,96.68
2023-01-21T11:43:49.869Z,96.26
2023-01-21T11:46:38.873Z,96.96
2023-01-21T11:49:08.182Z,95.93
2023-01-21T11:51:40.282Z,95.28
2023-01-21T11:54:15.927Z,93.03
2023-01-21T11:56:53.233Z,93.67
2023-01-21T11:59:25.147Z,93.92
2023-01-21T12:01:59.996Z,95.03
2023-01-21T12:04:26.827Z,94.76
2023-01-21T12:06:57.976Z,95.03
2023-01-21T12:09:25.097Z,94.94
2023-01-21T12:12:05.251Z,94.54
2023-01-21T12:14:47.455Z,94.30
2023-01-21T12:17:27.902Z,95.25
2023-01-21T12:20:05.381Z,95.69
2023-01-21T12:22:38.574Z,95.82
2023-01-21T12:25:26.826Z,95.58
2023-01-21T12:28:22.419Z,95.11
2023-01-21T12:31:07.390Z,94.74
2023-01-21T12:33:43.165Z,93.90
2023-01-21T12:36:21.663Z,94.96
2023-01-21T12:39:18.911Z,95.32
2023-01-21T12:41:53.455Z,94.32
2023-01-21T12:44:53.775Z,94.45
2023-01-21T12:47:29.332Z,94.78
2023-01-21T12:50:15.292Z,95.54
2023-01-21T12:53:02.496Z,96.03
2023-01-21T12:55:45.685Z,97.20
2023-01-21T12:58:15.824Z,97.56
2023-01-21T13:00:47.497Z,97.22
2023-01-21T13:03:32.409Z,97.94
2023-01-21T13:06:17.886Z,98.64
2023-01-21T13:09:03.896Z,98.67
2023-01-21T13:11:40.683Z,98.58
2023-01-21T13:14:07.116Z,98.46
2023-01-21T13:16:40.790Z,98.00
2023-01-21T13:19:12.885Z,97.89
2023-01-21T13:21:46.790Z,98.96
2023-01-21T13:24:16.178Z,96.35
2023-01-21T13:27:07.265Z,97.15
2023-01-21T13:29:49.799Z,97.30
2023-01-21T13:32:31.270Z,96.58
2023-01-21T13:34:57.654Z,96.71
2023-01-21T13:37:52.443Z,97.16
2023-01-21T13:40:30.309Z,96.80
2023-01-21T13:43:12.693Z,96.82
2023-01-21T13:46:16.842Z,96.93
2023-01-21T13:48:52.220Z,96.81
2023-01-21T13:51:31.647Z,96.18
2023-01-21T13:54:16.385Z,96.23
2023-01-21T13:56:58.618Z,96.30
2023-01-21T13:59:47.963Z,95.94
2023-01-21T14:02:28.137Z,96.66
2023-01-21T14:05:08.270Z,96.64
2023-01-21T14:08:33.474Z,97.58
2023-01-21T14:11:06.480Z,97.43
2023-01-21T14:13:54.637Z,98.17
2023-01-21T14:16:41.462Z,97.83
2023-01-21T14:19:30.166Z,99.20
2023-01-21T14:22:24.540Z,99.43
2023-01-21T14:25:17.419Z,99.88
2023-01-21T14:27:46.814Z,100.00
2023-01-21T14:30:25.775Z,100.00
2023-01-21T14:33:09.097Z,100.00
2023-01-21T14:35:54.252Z,100.00
2023-01-21T14:38:36.987Z,100.00
2023-01-21T14:41:07.903Z,100.00
2023-01-21T14:43:35.672Z,100.00
2023-01-21T14:46:22.066Z,100.00
2023-01-21T14:49:09.183Z,100.00
2023-01-21T14:51:47.676Z,100.00
2023-01-21T14:54:19.777Z,100.00
2023-01-21T14:57:21.749Z,100.00
2023-01-21T14:59:49.802Z,100.00
2023-01-21T15:02:35.634Z,100.00
2023-01-21T15:05:17.112Z,100.00
2023-01-21T15:07:47.117Z,100.00
2023-01-21T15:10:21.767Z,100.00
2023-01-21T15:12:57.563Z,100.00
2023-01-21T15:15:49.018Z,100.00
2023-01-21T15:18:48.379Z,100.00
2023-01-21T15:21:40.476Z,100.00
2023-01-21T15:24:21.053Z,100.00
2023-01-21T15:27:21.900Z,100.00
2023-01-21T15:29:54.126Z,100.00
2023-01-21T15:32:45.021Z,100.00
2023-01-21T15:35:44.479Z,100.00
2023-01-21T15:38:12.235Z,100.00
2023-01-21T15:40:47.701Z,100.00
2023-01-21T15:43:31.264Z,100.00
2023-01-21T15:46:16.215Z,100.00
2023-01-21T15:48:45.503Z,100.00
2023-01-21T15:51:29.306Z,100.00
2023-01-21T15:54:28.189Z,100.00
2023-01-21T15:57:07.920Z,100.00
2023-01-21T15:59:52.618Z,100.00
2023-01-21T16:02:19.006Z,100.00
2023-01-21T16:05:05.483Z,100.00
2023-01-21T16:07:54.146Z,100.00
2023-01-21T16:10:20.468Z,100.00
2023-01-21T16:12:52.730Z,100.00
2023-01-21T16:15:48.311Z,100.00
2023-01-21T16:18:20.855Z,100.00
2023-01-21T16:20:50.381Z,100.00
2023-01-21T16:23:20.909Z,100.00
2023-01-21T16:25:49.372Z,100.00
2023-01-21T16:28:16.402Z,100.00
2023-01-21T16:30:53.920Z,100.00
2023-01-21T16:33:22.867Z,100.00
2023-01-21T16:35:52.089Z,100.00
2023-01-21T16:38:25.249Z,100.00
2023-01-21T16:41:11.696Z,100.00
2023-01-21T16:43:45.629Z,100.00
2023-01-21T16:46:18.130Z,100.00
2023-01-21T16:48:50.580Z,100.00
2023-01-21T16:51:28.518Z,100.00
2023-01-21T16:54:19.646Z,100.00
2023-01-21T16:56:48.529Z,100.00
2023-01-21T16:59:45.629Z,100.00
2023-01-21T17:02:19.754Z,100.00
2023-01-21T17:04:48.754Z,100.00
2023-01-21T17:07:33.426Z,100.00
2023-01-21T17:10:16.991Z,100.00
2023-01-21T17:12:53.811Z,100.00
2023-01-21T17:15:49.233Z,100.00
2023-01-21T17:18:21.770Z,100.00
2023-01-21T17:20:51.172Z,100.00
2023-01-21T17:23:31.523Z,100.00
2023-01-21T17:26:04.534Z,100.00
2023-01-21T17:28:54.172Z,100.00
2023-01-21T17:31:29.599Z,100.00
2023-01-21T17:34:07.406Z,100.00
2023-01-21T17:36:41.913Z,100.00
2023-01-21T17:39:09.474Z,100.00
2023-01-21T17:41:40.935Z,100.00
2023-01-21T17:44:21.853Z,100.00
2023-01-21T17:46:57.643Z,100.00
2023-01-21T17:49:25.942Z,100.00
2023-01-21T17:51:56.626Z,100.00
2023-01-21T17:54:22.921Z,100.00
2023-01-21T17:56:57.792Z,100.00
2023-01-21T17:59:37.872Z,100.00
2023-01-21T18:02:16.124Z,100.00
2023-01-21T18:04:42.997Z,100.00
2023-01-21T18:07:21.191Z,100.00
2023-01-21T18:09:50.276Z,100.00
2023-01-21T18:12:19.434Z,100.00
2023-01-21T18:14:46.950Z,100.00
2023-01-21T18:17:17.649Z,100.00
2023-01-21T18:19:44.095Z,100.00
2023-01-21T18:22:26.030Z,100.00
2023-01-21T18:24:55.356Z,100.00
2023-01-21T18:27:27.602Z,100.00
2023-01-21T18:29:54.510Z,100.00
2023-01-21T18:32:22.675Z,100.00
2023-01-21T18:34:49.255Z,100.00
2023-01-21T18:37:17.786Z,100.00
2023-01-21T18:39:47.153Z,100.00
2023-01-21T18:42:18.006Z,100.00
2023-01-21T18:44:44.717Z,100.00
2023-01-21T18:47:13.925Z,100.00
2023-01-21T18:49:40.697Z,100.00
2023-01-21T18:52:09.726Z,100.00
2023-01-21T18:54:36.265Z,100.00
2023-01-21T18:57:05.317Z,100.00
2023-01-21T18:59:31.793Z,100.00
2023-01-21T19:01:58.206Z,100.00
2023-01-21T19:04:29.500Z,100.00
2023-01-21T19:06:56.281Z,100.00
2023-01-21T19:09:25.153Z,100.00
2023-01-21T19:11:51.873Z,100.00
2023-01-21T19:14:18.580Z,100.00
2023-01-21T19:16:45.938Z,100.00
2023-01-21T19:19:20.824Z,100.00
2023-01-21T19:21:47.752Z,100.00
2023-01-21T19:24:14.188Z,100.00
2023-01-21T19:26:40.695Z,100.00
2023-01-21T19:29:15.270Z,100.00
2023-01-21T19:31:42.457Z,100.00
2023-01-21T19:34:10.762Z,100.00
2023-01-21T19:36:39.125Z,100.00
2023-01-21T19:39:17.755Z,100.00
2023-01-21T19:41:46.363Z,100.00
2023-01-21T19:44:12.849Z,100.00
2023-01-21T19:46:39.498Z,100.00
2023-01-21T19:49:16.732Z,100.00
2023-01-21T19:51:44.501Z,100.00
2023-01-21T19:54:10.895Z,100.00
2023-01-21T19:56:37.378Z,100.00
2023-01-21T19:59:04.347Z,100.00
2023-01-21T20:01:33.188Z,100.00
2023-01-21T20:04:00.972Z,100.00
2023-01-21T20:06:34.284Z,100.00
2023-01-21T20:09:00.841Z,100.00
2023-01-21T20:11:27.315Z,100.00
2023-01-21T20:13:56.223Z,100.00
2023-01-21T20:16:23.804Z,100.00
2023-01-21T20:18:50.424Z,100.00
2023-01-21T20:21:19.469Z,100.00
2023-01-21T20:23:46.261Z,100.00
2023-01-21T20:26:17.459Z,100.00
2023-01-21T20:28:47.782Z,100.00
2023-01-21T20:31:14.309Z,100.00
2023-01-21T20:33:44.106Z,100.00
2023-01-21T20:36:22.617Z,100.00
2023-01-21T20:38:49.870Z,100.00
2023-01-21T20:41:19.326Z,100.00
2023-01-21T20:43:48.339Z,100.00
2023-01-21T20:46:34.949Z,100.00
2023-01-21T20:49:03.868Z,100.00
2023-01-21T20:51:33.595Z,100.00
2023-01-21T20:53:59.936Z,100.00
2023-01-21T20:56:33.100Z,100.00
2023-01-21T20:59:02.879Z,100.00
2023-01-21T21:01:31.091Z,100.00
2023-01-21T21:04:00.119Z,100.00
2023-01-21T21:06:28.575Z,100.00
2023-01-21T21:08:55.457Z,100.00
2023-01-21T21:11:22.033Z,100.00
2023-01-21T21:13:51.736Z,100.00
2023-01-21T21:16:21.130Z,100.00
2023-01-21T21:18:48.568Z,100.00
2023-01-21T21:21:16.214Z,100.00
2023-01-21T21:23:46.502Z,100.00
2023-01-21T21:26:33.164Z,100.00
2023-01-21T21:28:59.958Z,100.00
2023-01-21T21:31:31.815Z,100.00
2023-01-21T21:33:58.575Z,100.00
2023-01-21T21:36:27.681Z,100.00
2023-01-21T21:38:55.718Z,100.00
2023-01-21T21:41:43.688Z,100.00
2023-01-21T21:44:10.699Z,100.00
2023-01-21T21:46:56.428Z,100.00
2023-01-21T21:49:23.385Z,100.00
2023-01-21T21:51:52.430Z,100.00
2023-01-21T21:54:19.228Z,100.00
2023-01-21T21:56:48.744Z,100.00
2023-01-21T21:59:15.648Z,100.00
2023-01-21T22:01:44.072Z,100.00
2023-01-21T22:04:10.824Z,100.00
2023-01-21T22:06:37.321Z,100.00
2023-01-21T22:09:04.038Z,100.00
2023-01-21T22:11:30.604Z,100.00
2023-01-21T22:13:57.664Z,100.00
2023-01-21T22:16:27.083Z,100.00
2023-01-21T22:18:54.901Z,100.00
2023-01-21T22:21:29.077Z,100.00
2023-01-21T22:23:55.670Z,100.00
2023-01-21T22:26:25.442Z,100.00
2023-01-21T22:28:52.494Z,100.00
2023-01-21T22:31:21.604Z,100.00
2023-01-21T22:33:48.657Z,100.00
2023-01-21T22:36:17.915Z,100.00
2023-01-21T22:38:45.387Z,100.00
2023-01-21T22:41:16.416Z,100.00
2023-01-21T22:43:50.648Z,100.00
2023-01-21T22:46:22.283Z,100.00
2023-01-21T22:48:49.056Z,100.00
2023-01-21T22:51:18.641Z,100.00
2023-01-21T22:53:45.339Z,100.00
2023-01-21T22:56:13.865Z,100.00
2023-01-21T22:58:41.249Z,100.00
2023-01-21T23:01:21.057Z,100.00
2023-01-21T23:03:47.672Z,100.00
2023-01-21T23:06:14.139Z,100.00
2023-01-21T23:08:40.644Z,100.00
2023-01-21T23:11:08.495Z,100.00
2023-01-21T23:13:40.419Z,100.00
2023-01-21T23:16:10.985Z,100.00
2023-01-21T23:18:42.176Z,100.00
2023-01-21T23:21:20.578Z,100.00
2023-01-21T23:23:47.759Z,100.00
2023-01-21T23:26:15.445Z,100.00
2023-01-21T23:28:44.433Z,100.00
2023-01-21T23:31:14.474Z,100.00
2023-01-21T23:33:41.737Z,100.00
2023-01-21T23:36:11.129Z,100.00
2023-01-21T23:38:37.563Z,100.00
2023-01-21T23:41:11.982Z,100.00
2023-01-21T23:43:41.411Z,100.00
2023-01-21T23:46:11.628Z,100.00
2023-01-21T23:48:39.295Z,100.00
2023-01-21T23:51:08.353Z,100.00
2023-01-21T23:53:34.798Z,100.00
2023-01-21T23:56:15.940Z,100.00
2023-01-21T23:58:42.404Z,100.00
